createdAt,value
2018-11-22T12:18:01.253Z,101734.06
2018-11-22T12:20:30.785Z,101736.73
2018-11-22T12:23:00.044Z,101729.86
2018-11-22T12:25:29.494Z,101735.27
2018-11-22T12:27:58.954Z,101737.13
2018-11-22T12:30:29.485Z,101732.19
2018-11-22T12:32:58.515Z,101731.18
2018-11-22T12:35:27.935Z,101729.02
2018-11-22T12:37:57.149Z,101735.47
2018-11-22T12:40:26.423Z,101731.89
2018-11-22T12:42:55.883Z,101730.98
2018-11-22T12:45:25.160Z,101724.63
2018-11-22T12:47:54.335Z,101714.90
2018-11-22T12:50:23.605Z,101718.24
2018-11-22T12:52:52.878Z,101718.60
2018-11-22T12:55:22.143Z,101722.95
2018-11-22T12:57:51.433Z,101730.43
2018-11-22T13:00:20.898Z,101722.03
2018-11-22T13:02:50.162Z,101729.25
2018-11-22T13:05:19.426Z,101719.66
2018-11-22T13:07:48.374Z,101718.39
2018-11-22T13:10:17.643Z,101713.01
2018-11-22T13:12:46.563Z,101711.73
2018-11-22T13:15:15.515Z,101722.02
2018-11-22T13:17:44.955Z,101714.87
2018-11-22T13:20:13.882Z,101719.13
2018-11-22T13:22:43.336Z,101717.19
2018-11-22T13:25:12.249Z,101712.57
2018-11-22T13:27:41.516Z,101713.41
2018-11-22T13:30:10.217Z,101711.16
2018-11-22T13:32:39.494Z,101718.37
2018-11-22T13:35:08.218Z,101717.27
2018-11-22T13:37:37.494Z,101714.34
2018-11-22T13:40:06.436Z,101724.19
2018-11-22T13:42:35.707Z,101715.29
2018-11-22T13:45:04.172Z,101722.80
2018-11-22T13:47:33.643Z,101715.58
2018-11-22T13:50:02.981Z,101720.08
2018-11-22T13:52:37.202Z,101720.22
2018-11-22T13:55:01.489Z,101713.19
2018-11-22T13:57:30.778Z,101707.45
2018-11-22T13:59:59.977Z,101720.63
2018-11-22T14:02:29.842Z,101715.73
2018-11-22T14:04:59.109Z,101718.74
2018-11-22T14:07:28.078Z,101716.14
2018-11-22T14:09:57.357Z,101720.08
2018-11-22T14:12:26.801Z,101707.95
2018-11-22T14:14:56.053Z,101710.59
2018-11-22T14:17:25.324Z,101712.72
2018-11-22T14:19:55.298Z,101710.47
2018-11-22T14:22:24.729Z,101708.70
2018-11-22T14:24:54.010Z,101711.45
2018-11-22T14:27:22.986Z,101713.25
2018-11-22T14:29:52.250Z,101713.61
2018-11-22T14:32:21.695Z,101710.05
2018-11-22T14:34:51.020Z,101710.62
2018-11-22T14:37:20.278Z,101709.41
2018-11-22T14:39:49.218Z,101708.08
2018-11-22T14:42:18.485Z,101712.51
2018-11-22T14:44:47.750Z,101708.52
2018-11-22T14:47:17.017Z,101709.82
2018-11-22T14:49:46.473Z,101709.41
2018-11-22T14:52:15.736Z,101706.33
2018-11-22T14:54:45.173Z,101703.70
2018-11-22T14:57:14.626Z,101709.91
2018-11-22T14:59:44.125Z,101710.34
2018-11-22T15:02:21.241Z,101706.41
2018-11-22T15:05:02.302Z,101708.99
2018-11-22T15:07:43.824Z,101708.93
2018-11-22T15:10:13.002Z,101714.25
2018-11-22T15:12:42.449Z,101709.43
2018-11-22T15:15:11.495Z,101708.10
2018-11-22T15:17:40.933Z,101697.94
2018-11-22T15:20:09.849Z,101712.92
2018-11-22T15:22:39.396Z,101712.42
2018-11-22T15:25:08.374Z,101700.03
2018-11-22T15:27:37.836Z,101714.52
2018-11-22T15:30:06.554Z,101714.67
2018-11-22T15:32:39.215Z,101716.00
2018-11-22T15:35:08.150Z,101702.36
2018-11-22T15:37:38.434Z,101701.98
2018-11-22T15:40:06.431Z,101708.52
2018-11-22T15:42:35.729Z,101704.59
2018-11-22T15:45:04.589Z,101705.44
2018-11-22T15:47:33.591Z,101707.69
2018-11-22T15:50:02.865Z,101702.28
2018-11-22T15:52:32.168Z,101696.12
2018-11-22T15:55:01.433Z,101697.10
2018-11-22T15:57:30.546Z,101701.09
2018-11-22T15:59:59.855Z,101697.84
2018-11-22T16:02:30.833Z,101708.84
2018-11-22T16:05:00.661Z,101708.84
2018-11-22T16:07:29.920Z,101702.63
2018-11-22T16:09:59.366Z,101715.58
2018-11-22T16:12:28.903Z,101704.59
2018-11-22T16:14:58.329Z,101714.25
2018-11-22T16:17:27.605Z,101713.48
2018-11-22T16:19:56.889Z,101718.72
2018-11-22T16:22:28.768Z,101724.45
2018-11-22T16:24:57.807Z,101723.92
2018-11-22T16:27:27.065Z,101719.94
2018-11-22T16:29:56.345Z,101716.47
2018-11-22T16:32:26.503Z,101714.31
2018-11-22T16:34:55.762Z,101716.50
2018-11-22T16:37:24.735Z,101705.02
2018-11-22T16:40:02.022Z,101712.06
2018-11-22T16:42:31.029Z,101709.91
2018-11-22T16:45:00.470Z,101709.84
2018-11-22T16:47:31.356Z,101708.16
2018-11-22T16:50:00.986Z,101708.22
2018-11-22T16:52:30.557Z,101697.16
2018-11-22T16:54:59.810Z,101711.66
2018-11-22T16:57:29.088Z,101705.91
2018-11-22T16:59:58.526Z,101711.67
2018-11-22T17:02:28.498Z,101702.78
2018-11-22T17:04:57.777Z,101702.07
2018-11-22T17:07:27.049Z,101711.32
2018-11-22T17:09:56.309Z,101709.28
2018-11-22T17:12:25.582Z,101707.53
2018-11-22T17:14:54.870Z,101709.34
2018-11-22T17:17:26.229Z,101701.30
2018-11-22T17:19:55.531Z,101708.30
2018-11-22T17:22:24.840Z,101702.55
2018-11-22T17:24:59.172Z,101699.83
2018-11-22T17:27:28.681Z,101702.13
2018-11-22T17:29:57.960Z,101702.07
2018-11-22T17:32:27.400Z,101704.67
2018-11-22T17:34:56.682Z,101703.88
2018-11-22T17:37:26.017Z,101707.89
2018-11-22T17:39:55.262Z,101712.77
2018-11-22T17:42:26.725Z,101708.86
2018-11-22T17:44:56.157Z,101705.79
2018-11-22T17:47:27.121Z,101708.95
2018-11-22T17:49:59.587Z,101702.36
2018-11-22T17:52:29.141Z,101705.43
2018-11-22T17:55:01.890Z,101700.97
2018-11-22T17:57:31.379Z,101700.03
2018-11-22T18:00:00.789Z,101699.14
2018-11-22T18:02:34.203Z,101705.38
2018-11-22T18:05:03.426Z,101704.93
2018-11-22T18:07:44.723Z,101705.34
2018-11-22T18:14:09.722Z,101702.36
2018-11-22T18:16:38.996Z,101702.77
2018-11-22T18:19:09.558Z,101698.31
2018-11-22T18:21:38.816Z,101702.69
2018-11-22T18:25:26.794Z,101710.34
2018-11-22T18:27:56.549Z,101710.69
2018-11-22T18:30:25.826Z,101708.86
2018-11-22T18:32:54.899Z,101707.48
2018-11-22T18:35:24.158Z,101706.20
2018-11-22T18:37:53.280Z,101711.17
2018-11-22T18:40:22.570Z,101702.62
2018-11-22T18:42:51.830Z,101703.48
2018-11-22T18:45:21.834Z,101705.73
2018-11-22T18:47:50.788Z,101706.67
2018-11-22T18:50:19.849Z,101704.10
2018-11-22T18:52:49.127Z,101706.27
2018-11-22T18:55:18.389Z,101704.87
2018-11-22T18:57:47.711Z,101701.36
2018-11-22T19:00:16.636Z,101706.53
2018-11-22T19:02:46.073Z,101709.64
2018-11-22T19:05:15.353Z,101711.11
2018-11-22T19:07:44.459Z,101711.11
2018-11-22T19:10:13.171Z,101709.34
2018-11-22T19:12:42.673Z,101704.40
2018-11-22T19:15:11.627Z,101705.98
2018-11-22T19:17:41.194Z,101705.86
2018-11-22T19:20:10.123Z,101713.48
2018-11-22T19:22:39.377Z,101705.56
2018-11-22T19:25:08.455Z,101711.02
2018-11-22T19:27:37.663Z,101716.34
2018-11-22T19:30:06.678Z,101723.02
2018-11-22T19:32:35.992Z,101718.12
2018-11-22T19:35:04.752Z,101726.08
2018-11-22T19:37:34.059Z,101712.85
2018-11-22T19:40:40.246Z,101718.39
2018-11-22T19:43:11.398Z,101712.71
2018-11-22T19:45:40.986Z,101721.17
2018-11-22T19:48:10.232Z,101712.44
2018-11-22T19:50:39.489Z,101724.27
2018-11-22T19:53:08.454Z,101722.44
2018-11-22T19:55:37.709Z,101719.78
2018-11-22T19:58:10.308Z,101722.32
2018-11-22T20:00:39.582Z,101716.36
2018-11-22T20:03:09.464Z,101718.60
2018-11-22T20:05:38.186Z,101720.77
2018-11-22T20:08:07.526Z,101717.80
2018-11-22T20:10:36.971Z,101710.20
2018-11-22T20:13:06.235Z,101707.54
2018-11-22T20:15:35.492Z,101711.59
2018-11-22T20:18:05.338Z,101709.84
2018-11-22T20:20:34.594Z,101711.53
2018-11-22T20:23:03.527Z,101709.28
2018-11-22T20:25:33.081Z,101707.16
2018-11-22T20:28:02.658Z,101712.86
2018-11-22T20:30:31.922Z,101710.05
2018-11-22T20:33:01.795Z,101706.04
2018-11-22T20:35:31.052Z,101703.80
2018-11-22T20:38:00.376Z,101697.17
2018-11-22T20:40:29.665Z,101699.41
2018-11-22T20:42:58.931Z,101695.84
2018-11-22T20:45:28.479Z,101701.98
2018-11-22T20:47:58.058Z,101699.33
2018-11-22T20:50:27.618Z,101697.17
2018-11-22T20:52:56.882Z,101701.16
2018-11-22T20:55:26.568Z,101698.62
2018-11-22T20:57:55.839Z,101699.18
2018-11-22T21:00:25.403Z,101703.11
2018-11-22T21:02:54.563Z,101698.62
2018-11-22T21:05:23.836Z,101693.30
2018-11-22T21:07:52.765Z,101696.34
2018-11-22T21:10:21.711Z,101710.59
2018-11-22T21:12:52.040Z,101704.37
2018-11-22T21:15:21.071Z,101703.41
2018-11-22T21:17:50.311Z,101697.99
2018-11-22T21:20:19.258Z,101702.81
2018-11-22T21:22:56.065Z,101701.01
2018-11-22T21:25:25.628Z,101703.23
2018-11-22T21:27:54.914Z,101703.17
2018-11-22T21:30:24.189Z,101695.25
2018-11-22T21:32:53.771Z,101695.33
2018-11-22T21:35:23.371Z,101699.39
2018-11-22T21:37:52.818Z,101693.59
2018-11-22T21:40:21.752Z,101705.06
2018-11-22T21:42:50.697Z,101694.06
2018-11-22T21:45:19.953Z,101698.91
2018-11-22T21:47:49.524Z,101702.84
2018-11-22T21:50:18.829Z,101701.01
2018-11-22T21:52:49.025Z,101701.13
2018-11-22T21:55:18.231Z,101695.33
2018-11-22T21:57:48.933Z,101701.52
2018-11-22T22:00:18.716Z,101703.32
2018-11-22T22:02:52.667Z,101696.60
2018-11-22T22:05:17.500Z,101697.94
2018-11-22T22:07:46.967Z,101705.48
2018-11-22T22:10:16.517Z,101703.67
2018-11-22T22:12:45.769Z,101694.33
2018-11-22T22:15:14.946Z,101698.70
2018-11-22T22:17:44.206Z,101703.11
2018-11-22T22:20:13.365Z,101689.71
2018-11-22T22:22:42.592Z,101696.30
2018-11-22T22:25:12.019Z,101698.14
2018-11-22T22:27:41.453Z,101690.56
2018-11-22T22:30:10.143Z,101696.66
2018-11-22T22:32:39.541Z,101694.47
2018-11-22T22:35:08.262Z,101696.30
2018-11-22T22:37:37.711Z,101693.70
2018-11-22T22:40:06.404Z,101690.89
2018-11-22T22:42:35.814Z,101692.22
2018-11-22T22:45:04.511Z,101685.63
2018-11-22T22:47:33.774Z,101686.97
2018-11-22T22:50:02.818Z,101680.81
2018-11-22T22:52:32.082Z,101677.11
2018-11-22T22:55:01.396Z,101685.06
2018-11-22T22:57:30.846Z,101689.06
2018-11-22T23:00:00.284Z,101686.34
2018-11-22T23:02:29.783Z,101681.99
2018-11-22T23:04:59.047Z,101688.52
2018-11-22T23:07:28.363Z,101688.58
2018-11-22T23:09:57.337Z,101688.58
2018-11-22T23:12:27.147Z,101680.59
2018-11-22T23:14:56.405Z,101673.47
2018-11-22T23:17:25.574Z,101678.26
2018-11-22T23:19:55.085Z,101671.60
2018-11-22T23:22:24.815Z,101672.67
2018-11-22T23:24:54.363Z,101676.12
2018-11-22T23:27:23.950Z,101675.06
2018-11-22T23:29:53.041Z,101671.55
2018-11-22T23:32:22.778Z,101674.20
2018-11-22T23:34:52.121Z,101677.72
2018-11-22T23:37:21.538Z,101681.27
2018-11-22T23:39:51.284Z,101678.08
2018-11-22T23:42:20.838Z,101680.14
2018-11-22T23:44:50.229Z,101675.58
2018-11-22T23:47:19.751Z,101680.48
2018-11-22T23:49:49.257Z,101679.73
2018-11-22T23:52:18.914Z,101686.06
2018-11-22T23:54:49.166Z,101679.81
2018-11-22T23:57:18.421Z,101684.13
2018-11-22T23:59:48.759Z,101688.98
